createdAt,value
2022-11-29T00:02:18.487Z,101097.88
2022-11-29T00:04:52.240Z,101103.53
2022-11-29T00:07:25.751Z,101100.47
2022-11-29T00:10:00.781Z,101099.03
2022-11-29T00:12:34.372Z,101091.16
2022-11-29T00:15:08.878Z,101093.09
2022-11-29T00:17:42.417Z,101103.03
2022-11-29T00:20:16.281Z,101103.78
2022-11-29T00:22:49.714Z,101098.19
2022-11-29T00:25:24.996Z,101097.28
2022-11-29T00:27:58.451Z,101099.66
2022-11-29T00:30:32.172Z,101097.09
2022-11-29T00:33:05.625Z,101094.25
2022-11-29T00:35:39.258Z,101088.97
2022-11-29T00:38:12.690Z,101100.56
2022-11-29T00:40:52.072Z,101099.41
2022-11-29T00:43:25.649Z,101097.16
2022-11-29T00:45:59.388Z,101095.22
2022-11-29T00:48:34.048Z,101094.13
2022-11-29T00:51:08.590Z,101092.00
2022-11-29T00:53:42.216Z,101096.53
2022-11-29T00:56:17.319Z,101094.72
2022-11-29T00:58:50.800Z,101098.19
2022-11-29T01:01:24.579Z,101097.16
2022-11-29T01:03:58.083Z,101095.78
2022-11-29T01:06:31.733Z,101105.03
2022-11-29T01:09:05.376Z,101097.22
2022-11-29T01:11:40.423Z,101095.34
2022-11-29T01:14:14.361Z,101102.47
2022-11-29T01:16:48.279Z,101099.28
2022-11-29T01:19:21.843Z,101099.03
2022-11-29T01:21:55.560Z,101100.94
2022-11-29T01:24:29.782Z,101104.78
2022-11-29T01:27:05.045Z,101104.63
2022-11-29T01:29:38.509Z,101106.84
2022-11-29T01:32:12.461Z,101106.09
2022-11-29T01:34:46.251Z,101103.94
2022-11-29T01:37:20.174Z,101101.97
2022-11-29T01:39:53.655Z,101104.25
2022-11-29T01:42:28.710Z,101107.22
2022-11-29T01:45:22.169Z,101109.41
2022-11-29T01:47:58.924Z,101106.44
2022-11-29T01:50:32.465Z,101115.31
2022-11-29T01:53:06.893Z,101107.19
2022-11-29T01:55:43.723Z,101106.56
2022-11-29T01:58:19.323Z,101106.69
2022-11-29T02:00:52.970Z,101100.88
2022-11-29T02:03:26.880Z,101107.47
2022-11-29T02:06:02.431Z,101112.34
2022-11-29T02:08:39.494Z,101119.44
2022-11-29T02:11:44.286Z,101117.28
2022-11-29T02:14:37.251Z,101113.38
2022-11-29T02:17:21.889Z,101117.66
2022-11-29T02:20:30.552Z,101119.47
2022-11-29T02:23:16.415Z,101121.66
2022-11-29T02:26:04.132Z,101122.94
2022-11-29T02:29:01.775Z,101124.38
2022-11-29T02:31:56.972Z,101129.66
2022-11-29T02:34:45.954Z,101122.81
2022-11-29T02:37:40.326Z,101122.94
2022-11-29T02:40:44.668Z,101122.03
2022-11-29T02:43:36.261Z,101124.75
2022-11-29T02:46:25.675Z,101126.16
2022-11-29T02:49:09.344Z,101130.00
2022-11-29T02:51:49.095Z,101125.13
2022-11-29T02:54:28.858Z,101137.25
2022-11-29T02:57:12.683Z,101131.72
2022-11-29T02:59:54.317Z,101132.13
2022-11-29T03:02:33.589Z,101132.47
2022-11-29T03:05:18.385Z,101134.03
2022-11-29T03:07:59.755Z,101142.94
2022-11-29T03:10:40.660Z,101142.25
2022-11-29T03:13:23.886Z,101158.00
2022-11-29T03:16:04.496Z,101153.63
2022-11-29T03:18:50.885Z,101155.81
2022-11-29T03:21:36.322Z,101155.31
2022-11-29T03:24:17.058Z,101167.59
2022-11-29T03:26:55.228Z,101159.19
2022-11-29T03:29:33.983Z,101163.97
2022-11-29T03:32:10.397Z,101162.53
2022-11-29T03:34:57.362Z,101162.78
2022-11-29T03:37:41.457Z,101164.97
2022-11-29T03:40:20.642Z,101170.00
2022-11-29T03:42:57.589Z,101172.84
2022-11-29T03:45:35.971Z,101162.53
2022-11-29T03:48:15.763Z,101168.47
2022-11-29T03:50:55.085Z,101171.03
2022-11-29T03:53:36.926Z,101173.75
2022-11-29T03:56:29.166Z,101172.34
2022-11-29T03:59:12.260Z,101172.06
2022-11-29T04:02:04.341Z,101177.22
2022-11-29T04:05:05.215Z,101178.63
2022-11-29T04:07:51.748Z,101175.56
2022-11-29T04:10:43.810Z,101179.94
2022-11-29T04:13:47.576Z,101176.09
2022-11-29T04:16:56.657Z,101176.06
2022-11-29T04:20:01.009Z,101185.34
2022-11-29T04:22:53.808Z,101185.97
2022-11-29T04:25:56.569Z,101194.38
2022-11-29T04:29:01.118Z,101193.63
2022-11-29T04:31:42.636Z,101195.28
2022-11-29T04:34:39.618Z,101207.16
2022-11-29T04:37:34.303Z,101209.72
2022-11-29T04:40:27.399Z,101216.81
2022-11-29T04:43:14.853Z,101208.69
2022-11-29T04:46:21.502Z,101208.94
2022-11-29T04:49:11.350Z,101217.59
2022-11-29T04:52:06.567Z,101225.34
2022-11-29T04:54:47.414Z,101221.59
2022-11-29T04:57:33.871Z,101228.41
2022-11-29T05:00:10.999Z,101224.44
2022-11-29T05:02:52.172Z,101227.78
2022-11-29T05:05:36.055Z,101227.38
2022-11-29T05:08:25.153Z,101231.25
2022-11-29T05:11:02.143Z,101230.63
2022-11-29T05:13:46.254Z,101239.63
2022-11-29T05:16:36.791Z,101237.56
2022-11-29T05:19:25.102Z,101233.72
2022-11-29T05:22:20.820Z,101237.69
2022-11-29T05:25:01.934Z,101242.72
2022-11-29T05:27:46.231Z,101245.16
2022-11-29T05:30:22.779Z,101252.53
2022-11-29T05:33:05.846Z,101246.88
2022-11-29T05:35:53.158Z,101254.63
2022-11-29T05:38:45.312Z,101257.19
2022-11-29T05:41:36.916Z,101257.81
2022-11-29T05:44:15.274Z,101252.41
2022-11-29T05:46:57.254Z,101265.69
2022-11-29T05:49:40.225Z,101265.00
2022-11-29T05:52:22.931Z,101271.34
2022-11-29T05:55:20.255Z,101270.72
2022-11-29T05:57:59.700Z,101269.69
2022-11-29T06:00:42.158Z,101271.50
2022-11-29T06:03:24.732Z,101276.50
2022-11-29T06:06:02.622Z,101277.00
2022-11-29T06:08:44.080Z,101273.78
2022-11-29T06:11:24.511Z,101282.44
2022-11-29T06:14:05.934Z,101284.75
2022-11-29T06:17:03.440Z,101287.47
2022-11-29T06:20:11.050Z,101296.66
2022-11-29T06:22:57.378Z,101291.97
2022-11-29T06:25:47.407Z,101289.13
2022-11-29T06:28:33.385Z,101300.66
2022-11-29T06:31:17.151Z,101307.31
2022-11-29T06:33:59.574Z,101313.44
2022-11-29T06:36:36.975Z,101316.91
2022-11-29T06:39:11.551Z,101321.16
2022-11-29T06:41:45.514Z,101326.31
2022-11-29T06:44:21.368Z,101324.78
2022-11-29T06:47:04.061Z,101325.25
2022-11-29T06:49:43.871Z,101328.22
2022-11-29T06:52:28.359Z,101331.75
2022-11-29T06:55:11.411Z,101326.00
2022-11-29T06:57:58.475Z,101325.03
2022-11-29T07:00:43.653Z,101335.34
2022-11-29T07:03:34.464Z,101340.84
2022-11-29T07:06:16.056Z,101341.91
2022-11-29T07:08:53.902Z,101341.91
2022-11-29T07:11:28.182Z,101343.72
2022-11-29T07:14:02.521Z,101338.41
2022-11-29T07:16:44.316Z,101346.22
2022-11-29T07:19:27.178Z,101357.03
2022-11-29T07:22:09.615Z,101357.94
2022-11-29T07:24:57.958Z,101362.41
2022-11-29T07:27:40.190Z,101368.38
2022-11-29T07:30:18.053Z,101366.44
2022-11-29T07:33:04.701Z,101364.34
2022-11-29T07:35:46.802Z,101363.84
2022-11-29T07:38:29.676Z,101368.09
2022-11-29T07:41:12.504Z,101367.84
2022-11-29T07:43:51.619Z,101372.72
2022-11-29T07:46:25.550Z,101368.72
2022-11-29T07:49:00.464Z,101378.28
2022-11-29T07:51:34.305Z,101371.88
2022-11-29T07:54:08.048Z,101384.28
2022-11-29T07:56:41.827Z,101379.63
2022-11-29T07:59:15.344Z,101381.44
2022-11-29T08:01:49.486Z,101388.13
2022-11-29T08:04:24.379Z,101389.41
2022-11-29T08:06:59.478Z,101389.91
2022-11-29T08:09:33.087Z,101388.22
2022-11-29T08:12:07.294Z,101391.34
2022-11-29T08:14:40.742Z,101394.28
2022-11-29T08:17:14.519Z,101385.66
2022-11-29T08:19:49.433Z,101386.81
2022-11-29T08:22:23.243Z,101388.22
2022-11-29T08:24:57.969Z,101381.06
2022-11-29T08:27:32.139Z,101386.38
2022-11-29T08:30:06.664Z,101395.06
2022-11-29T08:32:40.539Z,101390.19
2022-11-29T08:35:15.717Z,101389.06
2022-11-29T08:37:49.956Z,101397.44
2022-11-29T08:40:24.404Z,101393.03
2022-11-29T08:42:58.536Z,101400.91
2022-11-29T08:45:32.112Z,101391.63
2022-11-29T08:48:06.739Z,101393.94
2022-11-29T08:50:41.739Z,101405.44
2022-11-29T08:53:33.255Z,101406.91
2022-11-29T08:56:41.642Z,101410.88
2022-11-29T08:59:05.330Z,101413.88
2022-11-29T09:01:40.103Z,101410.84
2022-11-29T09:04:17.017Z,101411.31
2022-11-29T09:06:52.577Z,101407.81
2022-11-29T09:09:27.275Z,101417.38
2022-11-29T09:12:00.880Z,101419.50
2022-11-29T09:14:34.877Z,101420.84
2022-11-29T09:17:08.388Z,101421.75
2022-11-29T09:19:42.063Z,101419.66
2022-11-29T09:22:17.029Z,101424.97
2022-11-29T09:24:50.746Z,101428.75
2022-11-29T09:27:24.380Z,101425.38
2022-11-29T09:29:58.119Z,101432.53
2022-11-29T09:32:32.138Z,101437.22
2022-11-29T09:35:06.533Z,101439.81
2022-11-29T09:37:44.278Z,101448.03
2022-11-29T09:40:21.163Z,101452.41
2022-11-29T09:43:01.739Z,101452.97
2022-11-29T09:45:42.441Z,101446.50
2022-11-29T09:48:56.195Z,101442.38
2022-11-29T09:51:41.210Z,101454.66
2022-11-29T09:54:26.002Z,101453.19
2022-11-29T09:56:59.947Z,101454.09
2022-11-29T09:59:39.636Z,101453.97
2022-11-29T10:02:21.624Z,101458.78
2022-11-29T10:05:01.477Z,101455.63
2022-11-29T10:07:41.410Z,101457.09
2022-11-29T10:10:21.562Z,101455.06
2022-11-29T10:13:01.112Z,101454.44
2022-11-29T10:15:41.110Z,101462.78
2022-11-29T10:18:20.201Z,101460.78
2022-11-29T10:20:57.859Z,101460.94
2022-11-29T10:23:36.079Z,101461.09
2022-11-29T10:26:13.154Z,101457.13
2022-11-29T10:28:49.320Z,101459.56
2022-11-29T10:31:25.328Z,101461.38
2022-11-29T10:34:02.164Z,101469.88
2022-11-29T10:36:40.110Z,101466.19
2022-11-29T10:39:19.967Z,101469.19
2022-11-29T10:41:57.563Z,101474.97
2022-11-29T10:44:33.367Z,101474.97
2022-11-29T10:47:10.977Z,101473.78
2022-11-29T10:49:44.906Z,101473.25
2022-11-29T10:52:21.553Z,101470.94
2022-11-29T10:54:59.580Z,101464.22
2022-11-29T10:57:35.367Z,101467.72
2022-11-29T11:00:11.771Z,101462.69
2022-11-29T11:02:45.326Z,101465.06
2022-11-29T11:05:26.728Z,101472.66
2022-11-29T11:08:00.547Z,101457.81
2022-11-29T11:10:34.548Z,101464.44
2022-11-29T11:13:23.008Z,101464.16
2022-11-29T11:16:08.592Z,101460.31
2022-11-29T11:18:42.445Z,101460.16
2022-11-29T11:21:18.165Z,101461.56
2022-11-29T11:23:57.512Z,101468.97
2022-11-29T11:26:44.081Z,101464.44
2022-11-29T11:29:21.157Z,101467.38
2022-11-29T11:31:57.536Z,101470.22
2022-11-29T11:34:34.304Z,101472.81
2022-11-29T11:37:23.741Z,101472.00
2022-11-29T11:39:58.826Z,101476.38
2022-11-29T11:42:38.645Z,101469.41
2022-11-29T11:45:29.279Z,101480.66
2022-11-29T11:48:05.876Z,101473.81
2022-11-29T11:50:45.500Z,101479.78
2022-11-29T11:53:23.468Z,101470.50
2022-11-29T11:56:00.373Z,101477.34
2022-11-29T11:58:37.481Z,101477.94
2022-11-29T12:01:28.583Z,101479.59
2022-11-29T12:04:06.052Z,101483.28
2022-11-29T12:06:46.300Z,101484.19
2022-11-29T12:09:35.013Z,101481.72
2022-11-29T12:12:14.776Z,101481.94
2022-11-29T12:14:56.985Z,101490.81
2022-11-29T12:17:36.179Z,101486.16
2022-11-29T12:20:21.267Z,101491.59
2022-11-29T12:23:10.376Z,101496.13
2022-11-29T12:25:50.316Z,101490.53
2022-11-29T12:28:27.880Z,101493.44
2022-11-29T12:31:15.622Z,101495.88
2022-11-29T12:33:58.573Z,101494.34
2022-11-29T12:36:41.420Z,101493.25
2022-11-29T12:39:36.417Z,101497.03
2022-11-29T12:42:18.527Z,101504.34
2022-11-29T12:45:01.806Z,101512.56
2022-11-29T12:47:52.062Z,101502.69
2022-11-29T12:50:39.771Z,101511.91
2022-11-29T12:53:29.865Z,101515.66
2022-11-29T12:56:14.684Z,101508.53
2022-11-29T12:59:02.463Z,101521.09
2022-11-29T13:01:51.204Z,101517.91
2022-11-29T13:04:31.452Z,101518.81
2022-11-29T13:07:16.271Z,101515.94
2022-11-29T13:10:02.521Z,101519.56
2022-11-29T13:12:38.713Z,101515.63
2022-11-29T13:15:16.552Z,101521.47
2022-11-29T13:17:58.052Z,101518.53
2022-11-29T13:20:38.510Z,101519.44
2022-11-29T13:23:45.823Z,101518.53
2022-11-29T13:26:19.770Z,101519.84
2022-11-29T13:28:53.618Z,101527.34
2022-11-29T13:31:27.399Z,101520.63
2022-11-29T13:34:07.561Z,101527.19
2022-11-29T13:36:51.906Z,101530.19
2022-11-29T13:39:39.447Z,101533.56
2022-11-29T13:42:20.710Z,101534.47
2022-11-29T13:45:05.650Z,101526.56
2022-11-29T13:48:00.776Z,101528.75
2022-11-29T13:50:42.441Z,101536.91
2022-11-29T13:53:19.353Z,101536.00
2022-11-29T13:56:00.697Z,101535.44
2022-11-29T13:58:40.591Z,101534.47
2022-11-29T14:01:17.976Z,101530.69
2022-11-29T14:04:04.299Z,101545.91
2022-11-29T14:06:40.031Z,101542.16
2022-11-29T14:09:24.973Z,101545.50
2022-11-29T14:12:04.801Z,101548.56
2022-11-29T14:14:49.238Z,101545.34
2022-11-29T14:17:48.478Z,101547.53
2022-11-29T14:20:46.442Z,101553.59
2022-11-29T14:23:37.119Z,101548.56
2022-11-29T14:26:31.072Z,101550.41
2022-11-29T14:29:44.118Z,101551.19
2022-11-29T14:32:23.583Z,101553.56
2022-11-29T14:35:03.196Z,101555.09
2022-11-29T14:37:55.962Z,101553.28
2022-11-29T14:40:35.488Z,101554.47
2022-11-29T14:43:17.804Z,101559.78
2022-11-29T14:46:09.623Z,101563.13
2022-11-29T14:48:48.123Z,101559.44
2022-11-29T14:51:23.079Z,101564.16
2022-11-29T14:54:07.036Z,101559.78
2022-11-29T14:56:43.227Z,101558.59
2022-11-29T14:59:46.406Z,101560.25
2022-11-29T15:02:32.328Z,101563.13
2022-11-29T15:05:15.365Z,101557.81
2022-11-29T15:07:53.748Z,101558.25
2022-11-29T15:10:32.644Z,101564.78
2022-11-29T15:13:07.709Z,101565.41
2022-11-29T15:16:04.303Z,101566.47
2022-11-29T15:19:03.898Z,101567.53
2022-11-29T15:21:45.355Z,101570.38
2022-11-29T15:24:19.818Z,101566.25
2022-11-29T15:26:56.112Z,101565.50
2022-11-29T15:29:31.598Z,101571.00
2022-11-29T15:32:07.139Z,101579.75
2022-11-29T15:34:45.141Z,101578.56
2022-11-29T15:37:24.599Z,101585.25
2022-11-29T15:40:03.370Z,101582.94
2022-11-29T15:42:43.001Z,101585.03
2022-11-29T15:45:31.707Z,101583.22
2022-11-29T15:48:19.102Z,101593.41
2022-11-29T15:51:03.647Z,101593.69
2022-11-29T15:53:41.559Z,101606.47
2022-11-29T15:56:19.064Z,101601.16
2022-11-29T15:59:02.493Z,101605.44
2022-11-29T16:01:37.456Z,101606.34
2022-11-29T16:04:18.561Z,101608.16
2022-11-29T16:06:54.187Z,101610.88
2022-11-29T16:09:34.110Z,101618.19
2022-11-29T16:12:13.125Z,101616.19
2022-11-29T16:14:51.528Z,101612.38
2022-11-29T16:17:27.872Z,101622.28
2022-11-29T16:20:24.242Z,101620.63
2022-11-29T16:23:12.302Z,101620.75
2022-11-29T16:25:53.995Z,101618.94
2022-11-29T16:28:33.989Z,101627.00
2022-11-29T16:31:07.711Z,101625.47
2022-11-29T16:33:41.273Z,101629.09
2022-11-29T16:36:18.161Z,101629.88
2022-11-29T16:38:55.444Z,101637.16
2022-11-29T16:41:33.485Z,101630.47
2022-11-29T16:44:08.105Z,101628.66
2022-11-29T16:46:42.130Z,101633.94
2022-11-29T16:49:33.617Z,101634.44
2022-11-29T16:52:24.721Z,101636.41
2022-11-29T16:55:00.200Z,101645.53
2022-11-29T16:57:34.400Z,101654.00
2022-11-29T17:00:13.144Z,101655.41
2022-11-29T17:02:46.700Z,101652.06
2022-11-29T17:05:20.413Z,101652.41
2022-11-29T17:07:54.413Z,101658.03
2022-11-29T17:10:29.496Z,101655.59
2022-11-29T17:13:04.416Z,101662.78
2022-11-29T17:15:38.057Z,101663.53
2022-11-29T17:18:11.702Z,101657.47
2022-11-29T17:20:45.346Z,101659.28
2022-11-29T17:23:19.183Z,101654.91
2022-11-29T17:26:00.659Z,101659.31
2022-11-29T17:28:34.463Z,101668.91
2022-11-29T17:31:11.960Z,101672.69
2022-11-29T17:33:46.114Z,101676.19
2022-11-29T17:36:21.383Z,101668.28
2022-11-29T17:38:55.195Z,101681.81
2022-11-29T17:41:30.749Z,101683.97
2022-11-29T17:44:05.154Z,101682.28
2022-11-29T17:46:39.352Z,101687.16
2022-11-29T17:49:13.235Z,101688.22
2022-11-29T17:51:54.436Z,101688.06
2022-11-29T17:54:28.317Z,101692.19
2022-11-29T17:57:03.784Z,101688.97
2022-11-29T17:59:37.687Z,101695.06
2022-11-29T18:02:15.218Z,101695.50
2022-11-29T18:04:48.950Z,101696.41
2022-11-29T18:07:22.398Z,101692.31
2022-11-29T18:09:56.102Z,101695.50
2022-11-29T18:12:30.917Z,101692.63
2022-11-29T18:15:05.009Z,101702.19
2022-11-29T18:17:38.507Z,101702.50
2022-11-29T18:20:14.074Z,101702.66
2022-11-29T18:22:47.923Z,101712.06
2022-11-29T18:25:39.142Z,101711.31
2022-11-29T18:28:14.622Z,101716.47
2022-11-29T18:30:48.906Z,101719.78
2022-11-29T18:33:22.467Z,101729.97
2022-11-29T18:36:05.192Z,101730.09
2022-11-29T18:38:39.130Z,101734.81
2022-11-29T18:41:16.020Z,101739.53
2022-11-29T18:43:57.284Z,101738.91
2022-11-29T18:46:33.105Z,101741.34
2022-11-29T18:49:08.500Z,101735.69
2022-11-29T18:51:44.520Z,101740.09
2022-11-29T18:54:19.800Z,101739.34
2022-11-29T18:56:53.465Z,101738.56
2022-11-29T18:59:28.299Z,101734.03
2022-11-29T19:02:01.972Z,101739.47
2022-11-29T19:04:36.790Z,101730.22
2022-11-29T19:07:10.423Z,101737.03
2022-11-29T19:09:43.995Z,101730.22
2022-11-29T19:12:17.716Z,101735.09
2022-11-29T19:14:52.802Z,101735.38
2022-11-29T19:17:26.790Z,101739.19
2022-11-29T19:20:00.593Z,101740.56
2022-11-29T19:22:42.187Z,101736.31
2022-11-29T19:25:17.274Z,101740.72
2022-11-29T19:27:51.082Z,101736.75
2022-11-29T19:30:25.913Z,101727.97
2022-11-29T19:32:59.628Z,101734.03
2022-11-29T19:35:33.078Z,101734.78
2022-11-29T19:38:06.778Z,101738.28
2022-11-29T19:40:40.466Z,101740.72
2022-11-29T19:43:14.166Z,101739.34
2022-11-29T19:45:49.082Z,101734.78
2022-11-29T19:48:22.882Z,101738.56
2022-11-29T19:50:56.346Z,101738.13
2022-11-29T19:53:30.533Z,101741.91
2022-11-29T19:56:05.994Z,101749.66
2022-11-29T19:58:40.154Z,101745.56
2022-11-29T20:01:17.995Z,101745.56
2022-11-29T20:03:52.245Z,101748.91
2022-11-29T20:06:27.670Z,101754.84
2022-11-29T20:09:01.786Z,101746.59
2022-11-29T20:11:36.009Z,101746.59
2022-11-29T20:14:12.185Z,101745.88
2022-11-29T20:16:47.024Z,101739.19
2022-11-29T20:19:20.843Z,101751.97
2022-11-29T20:21:54.929Z,101754.69
2022-11-29T20:24:31.231Z,101755.59
2022-11-29T20:27:07.462Z,101753.78
2022-11-29T20:29:41.194Z,101754.84
2022-11-29T20:32:16.850Z,101761.19
2022-11-29T20:34:51.177Z,101763.78
2022-11-29T20:37:39.599Z,101763.00
2022-11-29T20:40:20.903Z,101756.94
2022-11-29T20:43:04.605Z,101759.53
2022-11-29T20:45:38.722Z,101762.28
2022-11-29T20:48:17.928Z,101766.22
2022-11-29T20:50:57.200Z,101772.00
2022-11-29T20:53:39.428Z,101769.56
2022-11-29T20:56:13.395Z,101775.34
2022-11-29T20:58:46.892Z,101775.78
2022-11-29T21:01:20.525Z,101780.34
2022-11-29T21:03:55.705Z,101777.00
2022-11-29T21:06:29.681Z,101775.78
2022-11-29T21:09:03.215Z,101775.50
2022-11-29T21:11:37.520Z,101774.44
2022-11-29T21:14:11.683Z,101774.44
2022-11-29T21:16:45.869Z,101772.91
2022-11-29T21:19:25.626Z,101770.94
2022-11-29T21:22:06.612Z,101776.53
2022-11-29T21:24:49.061Z,101775.63
2022-11-29T21:27:34.785Z,101771.22
2022-11-29T21:30:18.629Z,101774.09
2022-11-29T21:32:53.096Z,101774.09
2022-11-29T21:35:27.931Z,101777.59
2022-11-29T21:38:03.013Z,101772.91
2022-11-29T21:40:36.682Z,101785.81
2022-11-29T21:43:10.524Z,101777.44
2022-11-29T21:45:44.101Z,101776.41
2022-11-29T21:48:36.100Z,101775.19
2022-11-29T21:51:12.178Z,101783.22
2022-11-29T21:53:46.348Z,101784.91
2022-11-29T21:56:20.016Z,101787.94
2022-11-29T21:58:53.829Z,101794.19
2022-11-29T22:01:28.194Z,101784.63
2022-11-29T22:04:02.165Z,101795.53
2022-11-29T22:06:37.752Z,101796.28
2022-11-29T22:09:11.610Z,101797.34
2022-11-29T22:11:45.067Z,101803.41
2022-11-29T22:14:19.083Z,101809.50
2022-11-29T22:16:54.104Z,101816.78
2022-11-29T22:19:29.933Z,101811.63
2022-11-29T22:22:09.024Z,101811.47
2022-11-29T22:24:42.700Z,101808.44
2022-11-29T22:27:18.119Z,101809.19
2022-11-29T22:29:52.025Z,101802.50
2022-11-29T22:32:25.819Z,101813.31
2022-11-29T22:34:59.553Z,101806.00
2022-11-29T22:37:34.427Z,101803.41
2022-11-29T22:40:09.175Z,101807.38
2022-11-29T22:42:43.281Z,101811.94
2022-11-29T22:45:17.000Z,101814.53
2022-11-29T22:47:50.482Z,101807.84
2022-11-29T22:50:24.645Z,101816.31
2022-11-29T22:52:59.422Z,101804.19
2022-11-29T22:55:33.137Z,101810.88
2022-11-29T22:58:06.838Z,101818.75
2022-11-29T23:00:44.034Z,101814.22
2022-11-29T23:03:17.740Z,101820.13
2022-11-29T23:05:52.175Z,101822.56
2022-11-29T23:08:30.421Z,101823.94
2022-11-29T23:11:05.767Z,101833.50
2022-11-29T23:13:41.018Z,101829.13
2022-11-29T23:16:17.655Z,101832.59
2022-11-29T23:18:51.767Z,101833.06
2022-11-29T23:21:26.808Z,101828.31
2022-11-29T23:24:01.810Z,101836.69
2022-11-29T23:26:38.890Z,101828.78
2022-11-29T23:29:14.833Z,101829.72
2022-11-29T23:31:49.182Z,101832.44
2022-11-29T23:34:22.772Z,101833.66
2022-11-29T23:36:56.441Z,101825.91
2022-11-29T23:39:31.302Z,101826.50
2022-11-29T23:42:05.588Z,101832.00
2022-11-29T23:44:39.035Z,101830.63
2022-11-29T23:47:12.723Z,101831.38
2022-11-29T23:49:46.232Z,101836.06
2022-11-29T23:52:19.922Z,101840.31
2022-11-29T23:54:54.884Z,101834.59
2022-11-29T23:57:30.140Z,101829.56
